sensor_id;sensor_type;location;lat;lon;timestamp;temperature;humidity
36458;DHT22;22480;50.546;12.292;2023-12-20T00:00:13;2.80;99.90
36458;DHT22;22480;50.546;12.292;2023-12-20T00:02:39;2.80;99.90
36458;DHT22;22480;50.546;12.292;2023-12-20T00:05:05;2.90;99.90
36458;DHT22;22480;50.546;12.292;2023-12-20T00:07:31;2.80;99.90
36458;DHT22;22480;50.546;12.292;2023-12-20T00:09:57;2.80;99.90
36458;DHT22;22480;50.546;12.292;2023-12-20T00:12:22;2.80;99.90
36458;DHT22;22480;50.546;12.292;2023-12-20T00:14:48;2.80;99.90
36458;DHT22;22480;50.546;12.292;2023-12-20T00:17:14;2.90;99.90
36458;DHT22;22480;50.546;12.292;2023-12-20T00:19:40;2.80;99.90
36458;DHT22;22480;50.546;12.292;2023-12-20T00:22:05;2.80;99.90
36458;DHT22;22480;50.546;12.292;2023-12-20T00:24:31;2.80;99.90
36458;DHT22;22480;50.546;12.292;2023-12-20T00:26:57;2.90;99.90
36458;DHT22;22480;50.546;12.292;2023-12-20T00:29:22;2.80;99.90
36458;DHT22;22480;50.546;12.292;2023-12-20T00:31:48;2.80;99.90
36458;DHT22;22480;50.546;12.292;2023-12-20T00:34:13;2.80;99.90
36458;DHT22;22480;50.546;12.292;2023-12-20T00:36:39;2.80;99.90
36458;DHT22;22480;50.546;12.292;2023-12-20T00:39:05;2.80;99.90
36458;DHT22;22480;50.546;12.292;2023-12-20T00:41:32;2.80;99.90
36458;DHT22;22480;50.546;12.292;2023-12-20T00:43:57;2.80;99.90
36458;DHT22;22480;50.546;12.292;2023-12-20T00:46:23;2.80;99.90
36458;DHT22;22480;50.546;12.292;2023-12-20T00:48:49;2.80;99.90
36458;DHT22;22480;50.546;12.292;2023-12-20T00:51:14;2.80;99.90
36458;DHT22;22480;50.546;12.292;2023-12-20T00:53:40;2.80;99.90
36458;DHT22;22480;50.546;12.292;2023-12-20T00:56:06;2.80;99.90
36458;DHT22;22480;50.546;12.292;2023-12-20T00:58:31;2.80;99.90
36458;DHT22;22480;50.546;12.292;2023-12-20T01:00:57;2.70;99.90
36458;DHT22;22480;50.546;12.292;2023-12-20T01:03:23;2.70;99.90
36458;DHT22;22480;50.546;12.292;2023-12-20T01:05:49;2.70;99.90
36458;DHT22;22480;50.546;12.292;2023-12-20T01:08:15;2.70;99.90
36458;DHT22;22480;50.546;12.292;2023-12-20T01:10:40;2.70;99.90
36458;DHT22;22480;50.546;12.292;2023-12-20T01:13:06;2.70;99.90
36458;DHT22;22480;50.546;12.292;2023-12-20T01:15:32;2.70;99.90
36458;DHT22;22480;50.546;12.292;2023-12-20T01:17:57;2.70;99.90
36458;DHT22;22480;50.546;12.292;2023-12-20T01:20:25;2.70;99.90
36458;DHT22;22480;50.546;12.292;2023-12-20T01:22:51;2.70;99.90
36458;DHT22;22480;50.546;12.292;2023-12-20T01:25:16;2.70;99.90
36458;DHT22;22480;50.546;12.292;2023-12-20T01:27:42;2.70;99.90
36458;DHT22;22480;50.546;12.292;2023-12-20T01:30:08;2.70;99.90
36458;DHT22;22480;50.546;12.292;2023-12-20T01:32:34;2.70;99.90
36458;DHT22;22480;50.546;12.292;2023-12-20T01:34:59;2.70;99.90
36458;DHT22;22480;50.546;12.292;2023-12-20T01:37:25;2.60;99.90
36458;DHT22;22480;50.546;12.292;2023-12-20T01:39:52;2.60;99.90
36458;DHT22;22480;50.546;12.292;2023-12-20T01:42:18;2.60;99.90
36458;DHT22;22480;50.546;12.292;2023-12-20T01:44:44;2.60;99.90
36458;DHT22;22480;50.546;12.292;2023-12-20T01:47:10;2.60;99.90
36458;DHT22;22480;50.546;12.292;2023-12-20T01:49:35;2.60;99.90
36458;DHT22;22480;50.546;12.292;2023-12-20T01:52:01;2.60;99.90
36458;DHT22;22480;50.546;12.292;2023-12-20T01:54:27;2.60;99.90
36458;DHT22;22480;50.546;12.292;2023-12-20T01:56:53;2.60;99.90
36458;DHT22;22480;50.546;12.292;2023-12-20T01:59:20;2.60;99.90
36458;DHT22;22480;50.546;12.292;2023-12-20T02:01:46;2.60;99.90
36458;DHT22;22480;50.546;12.292;2023-12-20T02:04:12;2.60;99.90
36458;DHT22;22480;50.546;12.292;2023-12-20T02:06:39;2.60;99.90
36458;DHT22;22480;50.546;12.292;2023-12-20T02:09:06;2.60;99.90
36458;DHT22;22480;50.546;12.292;2023-12-20T02:11:33;2.60;99.90
36458;DHT22;22480;50.546;12.292;2023-12-20T02:13:59;2.60;99.90
36458;DHT22;22480;50.546;12.292;2023-12-20T02:16:24;2.60;99.90
36458;DHT22;22480;50.546;12.292;2023-12-20T02:18:50;2.50;99.90
36458;DHT22;22480;50.546;12.292;2023-12-20T02:21:16;2.50;99.90
36458;DHT22;22480;50.546;12.292;2023-12-20T02:23:41;2.50;99.90
36458;DHT22;22480;50.546;12.292;2023-12-20T02:26:07;2.50;99.90
36458;DHT22;22480;50.546;12.292;2023-12-20T02:28:33;2.50;99.90
36458;DHT22;22480;50.546;12.292;2023-12-20T02:30:59;2.50;99.90
36458;DHT22;22480;50.546;12.292;2023-12-20T02:33:25;2.50;99.90
36458;DHT22;22480;50.546;12.292;2023-12-20T02:35:51;2.50;99.90
36458;DHT22;22480;50.546;12.292;2023-12-20T02:38:18;2.40;99.90
36458;DHT22;22480;50.546;12.292;2023-12-20T02:40:43;2.40;99.90
36458;DHT22;22480;50.546;12.292;2023-12-20T02:43:09;2.50;99.90
36458;DHT22;22480;50.546;12.292;2023-12-20T02:45:34;2.50;99.90
36458;DHT22;22480;50.546;12.292;2023-12-20T02:48:00;2.50;99.90
36458;DHT22;22480;50.546;12.292;2023-12-20T02:50:26;2.50;99.90
36458;DHT22;22480;50.546;12.292;2023-12-20T02:52:51;2.40;99.90
36458;DHT22;22480;50.546;12.292;2023-12-20T02:55:17;2.40;99.90
36458;DHT22;22480;50.546;12.292;2023-12-20T02:57:43;2.40;99.90
36458;DHT22;22480;50.546;12.292;2023-12-20T03:00:09;2.40;99.90
36458;DHT22;22480;50.546;12.292;2023-12-20T03:02:36;2.40;99.90
36458;DHT22;22480;50.546;12.292;2023-12-20T03:05:02;2.50;99.90
36458;DHT22;22480;50.546;12.292;2023-12-20T03:07:28;2.40;99.90
36458;DHT22;22480;50.546;12.292;2023-12-20T03:09:54;2.40;99.90
36458;DHT22;22480;50.546;12.292;2023-12-20T03:12:19;2.40;99.90
36458;DHT22;22480;50.546;12.292;2023-12-20T03:14:45;2.40;99.90
36458;DHT22;22480;50.546;12.292;2023-12-20T03:17:11;2.40;99.90
36458;DHT22;22480;50.546;12.292;2023-12-20T03:19:36;2.40;99.90
36458;DHT22;22480;50.546;12.292;2023-12-20T03:22:02;2.40;99.90
36458;DHT22;22480;50.546;12.292;2023-12-20T03:24:28;2.50;99.90
36458;DHT22;22480;50.546;12.292;2023-12-20T03:26:53;2.50;99.90
36458;DHT22;22480;50.546;12.292;2023-12-20T03:29:19;2.40;99.90
36458;DHT22;22480;50.546;12.292;2023-12-20T03:31:45;2.40;99.90
36458;DHT22;22480;50.546;12.292;2023-12-20T03:34:11;2.40;99.90
36458;DHT22;22480;50.546;12.292;2023-12-20T03:36:37;2.40;99.90
36458;DHT22;22480;50.546;12.292;2023-12-20T03:39:03;2.30;99.90
36458;DHT22;22480;50.546;12.292;2023-12-20T03:41:28;2.40;99.90
36458;DHT22;22480;50.546;12.292;2023-12-20T03:43:54;2.30;99.90
36458;DHT22;22480;50.546;12.292;2023-12-20T03:46:20;2.30;99.90
36458;DHT22;22480;50.546;12.292;2023-12-20T03:48:45;2.40;99.90
36458;DHT22;22480;50.546;12.292;2023-12-20T03:51:11;2.40;99.90
36458;DHT22;22480;50.546;12.292;2023-12-20T03:53:37;2.30;99.90
36458;DHT22;22480;50.546;12.292;2023-12-20T03:56:03;2.30;99.90
36458;DHT22;22480;50.546;12.292;2023-12-20T03:58:29;2.30;99.90
36458;DHT22;22480;50.546;12.292;2023-12-20T04:00:54;2.30;99.90
36458;DHT22;22480;50.546;12.292;2023-12-20T04:03:20;2.30;99.90
36458;DHT22;22480;50.546;12.292;2023-12-20T04:05:46;2.30;99.90
36458;DHT22;22480;50.546;12.292;2023-12-20T04:08:11;2.30;99.90
36458;DHT22;22480;50.546;12.292;2023-12-20T04:10:37;2.30;99.90
36458;DHT22;22480;50.546;12.292;2023-12-20T04:13:04;2.30;99.90
36458;DHT22;22480;50.546;12.292;2023-12-20T04:15:29;2.30;99.90
36458;DHT22;22480;50.546;12.292;2023-12-20T04:17:55;2.30;99.90
36458;DHT22;22480;50.546;12.292;2023-12-20T04:20:21;2.30;99.90
36458;DHT22;22480;50.546;12.292;2023-12-20T04:22:46;2.30;99.90
36458;DHT22;22480;50.546;12.292;2023-12-20T04:25:12;2.30;99.90
36458;DHT22;22480;50.546;12.292;2023-12-20T04:27:38;2.30;99.90
36458;DHT22;22480;50.546;12.292;2023-12-20T04:30:04;2.30;99.90
36458;DHT22;22480;50.546;12.292;2023-12-20T04:32:29;2.30;99.90
36458;DHT22;22480;50.546;12.292;2023-12-20T04:34:55;2.30;99.90
36458;DHT22;22480;50.546;12.292;2023-12-20T04:37:21;2.30;99.90
36458;DHT22;22480;50.546;12.292;2023-12-20T04:39:46;2.30;99.90
36458;DHT22;22480;50.546;12.292;2023-12-20T04:42:12;2.30;99.90
36458;DHT22;22480;50.546;12.292;2023-12-20T04:44:38;2.30;99.90
36458;DHT22;22480;50.546;12.292;2023-12-20T04:47:03;2.30;99.90
36458;DHT22;22480;50.546;12.292;2023-12-20T04:49:29;2.30;99.90
36458;DHT22;22480;50.546;12.292;2023-12-20T04:51:55;2.30;99.90
36458;DHT22;22480;50.546;12.292;2023-12-20T04:54:21;2.30;99.90
36458;DHT22;22480;50.546;12.292;2023-12-20T04:56:47;2.30;99.90
36458;DHT22;22480;50.546;12.292;2023-12-20T04:59:12;2.30;99.90
36458;DHT22;22480;50.546;12.292;2023-12-20T05:01:39;2.30;99.90
36458;DHT22;22480;50.546;12.292;2023-12-20T05:04:04;2.30;99.90
36458;DHT22;22480;50.546;12.292;2023-12-20T05:06:30;2.30;99.90
36458;DHT22;22480;50.546;12.292;2023-12-20T05:08:56;2.30;99.90
36458;DHT22;22480;50.546;12.292;2023-12-20T05:11:21;2.30;99.90
36458;DHT22;22480;50.546;12.292;2023-12-20T05:13:47;2.30;99.90
36458;DHT22;22480;50.546;12.292;2023-12-20T05:16:13;2.30;99.90
36458;DHT22;22480;50.546;12.292;2023-12-20T05:18:40;2.30;99.90
36458;DHT22;22480;50.546;12.292;2023-12-20T05:21:05;2.30;99.90
36458;DHT22;22480;50.546;12.292;2023-12-20T05:23:31;2.30;99.90
36458;DHT22;22480;50.546;12.292;2023-12-20T05:25:57;2.30;99.90
36458;DHT22;22480;50.546;12.292;2023-12-20T05:28:24;2.30;99.90
36458;DHT22;22480;50.546;12.292;2023-12-20T05:30:50;2.30;99.90
36458;DHT22;22480;50.546;12.292;2023-12-20T05:33:15;2.40;99.90
36458;DHT22;22480;50.546;12.292;2023-12-20T05:35:41;2.30;99.90
36458;DHT22;22480;50.546;12.292;2023-12-20T05:38:07;2.40;99.90
36458;DHT22;22480;50.546;12.292;2023-12-20T05:40:32;2.40;99.90
36458;DHT22;22480;50.546;12.292;2023-12-20T05:42:58;2.30;99.90
36458;DHT22;22480;50.546;12.292;2023-12-20T05:45:23;2.40;99.90
36458;DHT22;22480;50.546;12.292;2023-12-20T05:47:49;2.40;99.90
36458;DHT22;22480;50.546;12.292;2023-12-20T05:50:15;2.40;99.90
36458;DHT22;22480;50.546;12.292;2023-12-20T05:52:41;2.40;99.90
36458;DHT22;22480;50.546;12.292;2023-12-20T05:55:06;2.40;99.90
36458;DHT22;22480;50.546;12.292;2023-12-20T05:57:32;2.40;99.90
36458;DHT22;22480;50.546;12.292;2023-12-20T05:59:58;2.40;99.90
36458;DHT22;22480;50.546;12.292;2023-12-20T06:02:23;2.40;99.90
36458;DHT22;22480;50.546;12.292;2023-12-20T06:04:49;2.40;99.90
36458;DHT22;22480;50.546;12.292;2023-12-20T06:07:15;2.40;99.90
36458;DHT22;22480;50.546;12.292;2023-12-20T06:09:41;2.50;99.90
36458;DHT22;22480;50.546;12.292;2023-12-20T06:12:07;2.50;99.90
36458;DHT22;22480;50.546;12.292;2023-12-20T06:14:34;2.40;99.90
36458;DHT22;22480;50.546;12.292;2023-12-20T06:17:00;2.50;99.90
36458;DHT22;22480;50.546;12.292;2023-12-20T06:19:26;2.50;99.90
36458;DHT22;22480;50.546;12.292;2023-12-20T06:21:52;2.50;99.90
36458;DHT22;22480;50.546;12.292;2023-12-20T06:24:18;2.50;99.90
36458;DHT22;22480;50.546;12.292;2023-12-20T06:26:43;2.50;99.90
36458;DHT22;22480;50.546;12.292;2023-12-20T06:29:09;2.50;99.90
36458;DHT22;22480;50.546;12.292;2023-12-20T06:31:35;2.50;99.90
36458;DHT22;22480;50.546;12.292;2023-12-20T06:34:01;2.50;99.90
36458;DHT22;22480;50.546;12.292;2023-12-20T06:36:27;2.50;99.90
36458;DHT22;22480;50.546;12.292;2023-12-20T06:38:52;2.40;99.90
36458;DHT22;22480;50.546;12.292;2023-12-20T06:41:18;2.50;99.90
36458;DHT22;22480;50.546;12.292;2023-12-20T06:43:44;2.50;99.90
36458;DHT22;22480;50.546;12.292;2023-12-20T06:46:09;2.50;99.90
36458;DHT22;22480;50.546;12.292;2023-12-20T06:48:35;2.50;99.90
36458;DHT22;22480;50.546;12.292;2023-12-20T06:51:01;2.50;99.90
36458;DHT22;22480;50.546;12.292;2023-12-20T06:53:30;2.60;99.90
36458;DHT22;22480;50.546;12.292;2023-12-20T06:55:55;2.60;99.90
36458;DHT22;22480;50.546;12.292;2023-12-20T06:58:24;2.60;99.90
36458;DHT22;22480;50.546;12.292;2023-12-20T07:00:50;2.60;99.90
36458;DHT22;22480;50.546;12.292;2023-12-20T07:03:17;2.70;99.90
36458;DHT22;22480;50.546;12.292;2023-12-20T07:05:43;2.70;99.90
36458;DHT22;22480;50.546;12.292;2023-12-20T07:08:08;2.70;99.90
36458;DHT22;22480;50.546;12.292;2023-12-20T07:10:34;2.70;99.90
36458;DHT22;22480;50.546;12.292;2023-12-20T07:13:00;2.70;99.90
36458;DHT22;22480;50.546;12.292;2023-12-20T07:15:26;2.70;99.90
36458;DHT22;22480;50.546;12.292;2023-12-20T07:17:53;2.80;99.90
36458;DHT22;22480;50.546;12.292;2023-12-20T07:20:19;2.80;99.90
36458;DHT22;22480;50.546;12.292;2023-12-20T07:22:44;2.80;99.90
36458;DHT22;22480;50.546;12.292;2023-12-20T07:25:10;2.80;99.90
36458;DHT22;22480;50.546;12.292;2023-12-20T07:27:36;2.80;99.90
36458;DHT22;22480;50.546;12.292;2023-12-20T07:30:02;2.80;99.90
36458;DHT22;22480;50.546;12.292;2023-12-20T07:32:27;2.80;99.90
36458;DHT22;22480;50.546;12.292;2023-12-20T07:34:53;2.90;99.90
36458;DHT22;22480;50.546;12.292;2023-12-20T07:37:20;2.90;99.90
36458;DHT22;22480;50.546;12.292;2023-12-20T07:39:46;2.90;99.90
36458;DHT22;22480;50.546;12.292;2023-12-20T07:42:12;2.90;99.90
36458;DHT22;22480;50.546;12.292;2023-12-20T07:44:37;2.90;99.90
36458;DHT22;22480;50.546;12.292;2023-12-20T07:47:03;2.90;99.90
36458;DHT22;22480;50.546;12.292;2023-12-20T07:49:31;3.00;99.90
36458;DHT22;22480;50.546;12.292;2023-12-20T07:51:57;3.00;99.90
36458;DHT22;22480;50.546;12.292;2023-12-20T07:54:22;3.00;99.90
36458;DHT22;22480;50.546;12.292;2023-12-20T07:56:49;3.00;99.90
36458;DHT22;22480;50.546;12.292;2023-12-20T07:59:14;3.00;99.90
36458;DHT22;22480;50.546;12.292;2023-12-20T08:01:40;3.00;99.90
36458;DHT22;22480;50.546;12.292;2023-12-20T08:04:06;3.10;99.90
36458;DHT22;22480;50.546;12.292;2023-12-20T08:06:31;3.10;99.90
36458;DHT22;22480;50.546;12.292;2023-12-20T08:08:57;3.10;99.90
36458;DHT22;22480;50.546;12.292;2023-12-20T08:11:23;3.10;99.90
36458;DHT22;22480;50.546;12.292;2023-12-20T08:13:48;3.10;99.90
36458;DHT22;22480;50.546;12.292;2023-12-20T08:16:14;3.20;99.90
36458;DHT22;22480;50.546;12.292;2023-12-20T08:18:41;3.20;99.90
36458;DHT22;22480;50.546;12.292;2023-12-20T08:21:07;3.20;99.90
36458;DHT22;22480;50.546;12.292;2023-12-20T08:23:34;3.20;99.90
36458;DHT22;22480;50.546;12.292;2023-12-20T08:26:06;3.20;99.90
36458;DHT22;22480;50.546;12.292;2023-12-20T08:28:32;3.20;99.90
36458;DHT22;22480;50.546;12.292;2023-12-20T08:30:58;3.20;99.90
36458;DHT22;22480;50.546;12.292;2023-12-20T08:33:24;3.30;99.90
36458;DHT22;22480;50.546;12.292;2023-12-20T08:35:49;3.30;99.90
36458;DHT22;22480;50.546;12.292;2023-12-20T08:38:15;3.30;99.90
36458;DHT22;22480;50.546;12.292;2023-12-20T08:40:42;3.20;99.90
36458;DHT22;22480;50.546;12.292;2023-12-20T08:43:07;3.10;99.90
36458;DHT22;22480;50.546;12.292;2023-12-20T08:45:33;3.00;99.90
36458;DHT22;22480;50.546;12.292;2023-12-20T08:47:59;3.00;99.90
36458;DHT22;22480;50.546;12.292;2023-12-20T08:50:25;2.90;99.90
36458;DHT22;22480;50.546;12.292;2023-12-20T08:52:51;2.90;99.90
36458;DHT22;22480;50.546;12.292;2023-12-20T08:55:16;3.00;99.90
36458;DHT22;22480;50.546;12.292;2023-12-20T08:57:43;3.10;99.90
36458;DHT22;22480;50.546;12.292;2023-12-20T09:00:10;3.10;99.90
36458;DHT22;22480;50.546;12.292;2023-12-20T09:02:35;3.10;99.90
36458;DHT22;22480;50.546;12.292;2023-12-20T09:05:02;3.20;99.90
36458;DHT22;22480;50.546;12.292;2023-12-20T09:07:28;3.40;99.90
36458;DHT22;22480;50.546;12.292;2023-12-20T09:09:56;3.40;99.90
36458;DHT22;22480;50.546;12.292;2023-12-20T09:12:21;3.40;99.90
36458;DHT22;22480;50.546;12.292;2023-12-20T09:14:48;3.50;99.90
36458;DHT22;22480;50.546;12.292;2023-12-20T09:17:18;3.40;99.90
36458;DHT22;22480;50.546;12.292;2023-12-20T09:19:45;3.40;99.90
36458;DHT22;22480;50.546;12.292;2023-12-20T09:22:11;3.50;99.90
36458;DHT22;22480;50.546;12.292;2023-12-20T09:24:38;3.50;99.90
36458;DHT22;22480;50.546;12.292;2023-12-20T09:27:04;3.50;99.90
36458;DHT22;22480;50.546;12.292;2023-12-20T09:29:31;3.50;99.90
36458;DHT22;22480;50.546;12.292;2023-12-20T09:31:57;3.60;99.90
36458;DHT22;22480;50.546;12.292;2023-12-20T09:34:23;3.50;99.90
36458;DHT22;22480;50.546;12.292;2023-12-20T09:36:49;3.50;99.90
36458;DHT22;22480;50.546;12.292;2023-12-20T09:39:16;3.60;99.90
36458;DHT22;22480;50.546;12.292;2023-12-20T09:41:58;3.60;99.90
36458;DHT22;22480;50.546;12.292;2023-12-20T09:44:25;3.60;99.90
36458;DHT22;22480;50.546;12.292;2023-12-20T09:46:52;3.60;99.90
36458;DHT22;22480;50.546;12.292;2023-12-20T09:49:20;3.60;99.90
36458;DHT22;22480;50.546;12.292;2023-12-20T09:51:47;3.60;99.90
36458;DHT22;22480;50.546;12.292;2023-12-20T09:54:17;3.60;99.90
36458;DHT22;22480;50.546;12.292;2023-12-20T09:56:43;3.70;99.90
36458;DHT22;22480;50.546;12.292;2023-12-20T09:59:09;3.70;99.90
36458;DHT22;22480;50.546;12.292;2023-12-20T10:01:35;3.70;99.90
36458;DHT22;22480;50.546;12.292;2023-12-20T10:04:05;3.70;99.90
36458;DHT22;22480;50.546;12.292;2023-12-20T10:06:40;3.70;99.90
36458;DHT22;22480;50.546;12.292;2023-12-20T10:09:05;3.70;99.90
36458;DHT22;22480;50.546;12.292;2023-12-20T10:11:31;3.60;99.90
36458;DHT22;22480;50.546;12.292;2023-12-20T10:14:00;3.70;99.90
36458;DHT22;22480;50.546;12.292;2023-12-20T10:16:27;3.80;99.90
36458;DHT22;22480;50.546;12.292;2023-12-20T10:18:53;3.90;99.90
36458;DHT22;22480;50.546;12.292;2023-12-20T10:21:19;4.00;99.90
36458;DHT22;22480;50.546;12.292;2023-12-20T10:23:46;4.10;99.90
36458;DHT22;22480;50.546;12.292;2023-12-20T10:26:24;4.10;99.90
36458;DHT22;22480;50.546;12.292;2023-12-20T10:28:51;4.20;99.90
36458;DHT22;22480;50.546;12.292;2023-12-20T10:31:34;4.30;99.90
36458;DHT22;22480;50.546;12.292;2023-12-20T10:34:02;4.30;99.90
36458;DHT22;22480;50.546;12.292;2023-12-20T10:36:32;4.30;99.90
36458;DHT22;22480;50.546;12.292;2023-12-20T10:38:59;4.30;99.90
36458;DHT22;22480;50.546;12.292;2023-12-20T10:41:32;4.20;99.90
36458;DHT22;22480;50.546;12.292;2023-12-20T10:44:03;4.20;99.90
36458;DHT22;22480;50.546;12.292;2023-12-20T10:46:30;4.10;99.90
36458;DHT22;22480;50.546;12.292;2023-12-20T10:48:58;4.00;99.90
36458;DHT22;22480;50.546;12.292;2023-12-20T10:51:24;4.00;99.90
36458;DHT22;22480;50.546;12.292;2023-12-20T10:53:53;4.00;99.90
36458;DHT22;22480;50.546;12.292;2023-12-20T10:56:19;3.90;99.90
36458;DHT22;22480;50.546;12.292;2023-12-20T10:58:46;3.90;99.90
36458;DHT22;22480;50.546;12.292;2023-12-20T11:01:14;4.00;99.90
36458;DHT22;22480;50.546;12.292;2023-12-20T11:03:51;4.20;99.90
36458;DHT22;22480;50.546;12.292;2023-12-20T11:17:10;4.60;99.90
36458;DHT22;22480;50.546;12.292;2023-12-20T11:22:25;4.60;99.90
36458;DHT22;22480;50.546;12.292;2023-12-20T11:24:52;4.80;99.90
36458;DHT22;22480;50.546;12.292;2023-12-20T11:27:19;5.20;99.90
36458;DHT22;22480;50.546;12.292;2023-12-20T11:29:52;5.60;99.90
36458;DHT22;22480;50.546;12.292;2023-12-20T11:32:30;5.40;99.90
36458;DHT22;22480;50.546;12.292;2023-12-20T11:37:21;4.40;99.90
36458;DHT22;22480;50.546;12.292;2023-12-20T11:39:55;4.60;99.90
36458;DHT22;22480;50.546;12.292;2023-12-20T11:42:22;5.40;99.90
36458;DHT22;22480;50.546;12.292;2023-12-20T11:44:47;5.80;99.90
36458;DHT22;22480;50.546;12.292;2023-12-20T11:47:13;6.00;99.90
36458;DHT22;22480;50.546;12.292;2023-12-20T11:49:41;6.40;99.90
36458;DHT22;22480;50.546;12.292;2023-12-20T11:52:06;6.50;99.90
36458;DHT22;22480;50.546;12.292;2023-12-20T11:54:32;6.40;99.90
36458;DHT22;22480;50.546;12.292;2023-12-20T11:56:58;6.40;99.90
36458;DHT22;22480;50.546;12.292;2023-12-20T11:59:24;6.60;99.90
36458;DHT22;22480;50.546;12.292;2023-12-20T12:01:52;6.80;99.90
36458;DHT22;22480;50.546;12.292;2023-12-20T12:04:18;6.60;99.90
36458;DHT22;22480;50.546;12.292;2023-12-20T12:06:44;6.30;99.90
36458;DHT22;22480;50.546;12.292;2023-12-20T12:09:11;5.80;99.90
36458;DHT22;22480;50.546;12.292;2023-12-20T12:11:36;5.30;99.90
36458;DHT22;22480;50.546;12.292;2023-12-20T12:14:02;4.90;99.90
36458;DHT22;22480;50.546;12.292;2023-12-20T12:16:29;4.80;99.90
36458;DHT22;22480;50.546;12.292;2023-12-20T12:18:58;4.90;99.90
36458;DHT22;22480;50.546;12.292;2023-12-20T12:21:24;4.70;99.90
36458;DHT22;22480;50.546;12.292;2023-12-20T12:23:50;4.60;99.90
36458;DHT22;22480;50.546;12.292;2023-12-20T12:26:16;4.60;99.90
36458;DHT22;22480;50.546;12.292;2023-12-20T12:28:42;4.60;99.90
36458;DHT22;22480;50.546;12.292;2023-12-20T12:31:08;4.60;99.90
36458;DHT22;22480;50.546;12.292;2023-12-20T12:33:38;4.80;99.90
36458;DHT22;22480;50.546;12.292;2023-12-20T12:36:04;4.70;99.90
36458;DHT22;22480;50.546;12.292;2023-12-20T12:38:32;4.90;99.90
36458;DHT22;22480;50.546;12.292;2023-12-20T12:40:58;5.30;99.90
36458;DHT22;22480;50.546;12.292;2023-12-20T12:43:25;5.60;99.90
36458;DHT22;22480;50.546;12.292;2023-12-20T12:45:51;5.70;99.90
36458;DHT22;22480;50.546;12.292;2023-12-20T12:48:17;5.60;99.90
36458;DHT22;22480;50.546;12.292;2023-12-20T12:50:43;5.30;99.90
36458;DHT22;22480;50.546;12.292;2023-12-20T12:53:09;5.20;99.90
36458;DHT22;22480;50.546;12.292;2023-12-20T12:55:35;4.90;99.90
36458;DHT22;22480;50.546;12.292;2023-12-20T12:58:01;4.80;99.90
36458;DHT22;22480;50.546;12.292;2023-12-20T13:00:27;4.70;99.90
36458;DHT22;22480;50.546;12.292;2023-12-20T13:02:53;4.70;99.90
36458;DHT22;22480;50.546;12.292;2023-12-20T13:05:19;4.60;99.90
36458;DHT22;22480;50.546;12.292;2023-12-20T13:07:44;4.50;99.90
36458;DHT22;22480;50.546;12.292;2023-12-20T13:10:13;4.50;99.90
36458;DHT22;22480;50.546;12.292;2023-12-20T13:12:42;4.50;99.90
36458;DHT22;22480;50.546;12.292;2023-12-20T13:15:08;4.40;99.90
36458;DHT22;22480;50.546;12.292;2023-12-20T13:17:34;4.40;99.90
36458;DHT22;22480;50.546;12.292;2023-12-20T13:20:00;4.40;99.90
36458;DHT22;22480;50.546;12.292;2023-12-20T13:22:26;4.30;99.90
36458;DHT22;22480;50.546;12.292;2023-12-20T13:24:51;4.30;99.90
36458;DHT22;22480;50.546;12.292;2023-12-20T13:27:17;4.10;99.90
36458;DHT22;22480;50.546;12.292;2023-12-20T13:29:43;4.00;99.90
36458;DHT22;22480;50.546;12.292;2023-12-20T13:32:08;4.20;99.90
36458;DHT22;22480;50.546;12.292;2023-12-20T13:34:34;4.70;99.90
36458;DHT22;22480;50.546;12.292;2023-12-20T13:36:59;5.10;99.90
36458;DHT22;22480;50.546;12.292;2023-12-20T13:39:25;5.40;99.90
36458;DHT22;22480;50.546;12.292;2023-12-20T13:41:51;5.50;99.90
36458;DHT22;22480;50.546;12.292;2023-12-20T13:44:16;5.50;99.90
36458;DHT22;22480;50.546;12.292;2023-12-20T13:46:42;5.50;99.90
36458;DHT22;22480;50.546;12.292;2023-12-20T13:49:08;5.60;99.90
36458;DHT22;22480;50.546;12.292;2023-12-20T13:51:33;5.70;99.90
36458;DHT22;22480;50.546;12.292;2023-12-20T13:53:59;5.40;99.90
36458;DHT22;22480;50.546;12.292;2023-12-20T13:56:25;5.10;99.90
36458;DHT22;22480;50.546;12.292;2023-12-20T13:58:51;4.80;99.90
36458;DHT22;22480;50.546;12.292;2023-12-20T14:01:17;4.60;99.90
36458;DHT22;22480;50.546;12.292;2023-12-20T14:03:43;4.50;99.90
36458;DHT22;22480;50.546;12.292;2023-12-20T14:06:08;4.40;99.90
36458;DHT22;22480;50.546;12.292;2023-12-20T14:08:34;4.40;99.90
36458;DHT22;22480;50.546;12.292;2023-12-20T14:11:01;4.30;99.90
36458;DHT22;22480;50.546;12.292;2023-12-20T14:13:27;4.20;99.90
36458;DHT22;22480;50.546;12.292;2023-12-20T14:15:52;4.10;99.90
36458;DHT22;22480;50.546;12.292;2023-12-20T14:18:19;4.10;99.90
36458;DHT22;22480;50.546;12.292;2023-12-20T14:20:45;4.00;99.90
36458;DHT22;22480;50.546;12.292;2023-12-20T14:23:12;4.00;99.90
36458;DHT22;22480;50.546;12.292;2023-12-20T14:25:41;3.90;99.90
36458;DHT22;22480;50.546;12.292;2023-12-20T14:28:06;3.90;99.90
36458;DHT22;22480;50.546;12.292;2023-12-20T14:30:32;3.90;99.90
36458;DHT22;22480;50.546;12.292;2023-12-20T14:32:58;3.80;99.90
36458;DHT22;22480;50.546;12.292;2023-12-20T14:35:23;3.80;99.90
36458;DHT22;22480;50.546;12.292;2023-12-20T14:37:49;3.70;99.90
36458;DHT22;22480;50.546;12.292;2023-12-20T14:40:16;3.70;99.90
36458;DHT22;22480;50.546;12.292;2023-12-20T14:42:42;3.70;99.90
36458;DHT22;22480;50.546;12.292;2023-12-20T14:45:09;3.60;99.90
36458;DHT22;22480;50.546;12.292;2023-12-20T14:47:35;3.60;99.90
36458;DHT22;22480;50.546;12.292;2023-12-20T14:50:03;3.70;99.90
36458;DHT22;22480;50.546;12.292;2023-12-20T14:52:30;3.60;99.90
36458;DHT22;22480;50.546;12.292;2023-12-20T14:54:56;3.60;99.90
36458;DHT22;22480;50.546;12.292;2023-12-20T14:57:21;3.60;99.90
36458;DHT22;22480;50.546;12.292;2023-12-20T14:59:47;3.70;99.90
36458;DHT22;22480;50.546;12.292;2023-12-20T15:02:12;3.60;99.90
36458;DHT22;22480;50.546;12.292;2023-12-20T15:04:38;3.60;99.90
36458;DHT22;22480;50.546;12.292;2023-12-20T15:07:04;3.60;99.90
36458;DHT22;22480;50.546;12.292;2023-12-20T15:09:31;3.60;99.90
36458;DHT22;22480;50.546;12.292;2023-12-20T15:11:57;3.70;99.90
36458;DHT22;22480;50.546;12.292;2023-12-20T15:14:23;3.70;99.90
36458;DHT22;22480;50.546;12.292;2023-12-20T15:16:49;3.70;99.90
36458;DHT22;22480;50.546;12.292;2023-12-20T15:19:15;3.60;99.90
36458;DHT22;22480;50.546;12.292;2023-12-20T15:21:41;3.60;99.90
36458;DHT22;22480;50.546;12.292;2023-12-20T15:24:11;3.60;99.90
36458;DHT22;22480;50.546;12.292;2023-12-20T15:26:42;3.60;99.90
36458;DHT22;22480;50.546;12.292;2023-12-20T15:29:09;3.70;99.90
36458;DHT22;22480;50.546;12.292;2023-12-20T15:31:36;3.70;99.90
36458;DHT22;22480;50.546;12.292;2023-12-20T15:34:02;3.70;99.90
36458;DHT22;22480;50.546;12.292;2023-12-20T15:36:28;3.70;99.90
36458;DHT22;22480;50.546;12.292;2023-12-20T15:38:54;3.70;99.90